Time;durP1;ratioP1;P1;durP2;ratioP2;P2;SDS_P1;SDS_P2;PMS_P1;PMS_P2;Temp;Humidity;BMP_temperature;BMP_pressure;BME280_temperature;BME280_humidity;BME280_pressure;Samples;Min_cycle;Max_cycle;Signal;HPM_P1;HPM_P2
2021/04/27 00:01:47;;;;;;;13.68;7.68;;;0.00;64.40;;;;;;5074439;28;20027;-75
2021/04/27 00:04:13;;;;;;;15.82;9.80;;;0.00;64.30;;;;;;5075817;28;20048;-75
2021/04/27 00:06:38;;;;;;;16.70;9.27;;;-0.10;65.10;;;;;;5074430;28;20020;-74
2021/04/27 00:09:06;;;;;;;12.80;7.75;;;-0.10;65.60;;;;;;5075744;28;20434;-76
2021/04/27 00:11:32;;;;;;;20.95;9.88;;;-0.10;66.30;;;;;;5075818;28;20017;-74
2021/04/27 00:13:58;;;;;;;27.13;10.77;;;-0.10;65.60;;;;;;5074446;28;20025;-75
2021/04/27 00:16:24;;;;;;;18.50;10.38;;;-0.20;66.00;;;;;;5075678;28;20024;-75
2021/04/27 00:18:50;;;;;;;20.80;9.82;;;-0.20;66.00;;;;;;5075426;28;20036;-74
2021/04/27 00:21:15;;;;;;;29.67;12.10;;;-0.20;65.80;;;;;;5074120;28;20016;-75
2021/04/27 00:23:41;;;;;;;25.65;10.73;;;-0.20;65.50;;;;;;5075331;28;20017;-74
2021/04/27 00:26:06;;;;;;;22.08;11.15;;;-0.20;64.50;;;;;;5074275;28;20039;-75
2021/04/27 00:28:32;;;;;;;29.23;11.82;;;-0.30;64.90;;;;;;5075345;28;20021;-74
2021/04/27 00:30:58;;;;;;;28.23;13.50;;;-0.30;65.90;;;;;;5075328;28;20094;-74
2021/04/27 00:33:24;;;;;;;24.73;11.38;;;-0.40;67.10;;;;;;5075151;28;20020;-74
2021/04/27 00:35:50;;;;;;;31.23;13.40;;;-0.40;67.60;;;;;;5074341;28;20031;-75
2021/04/27 00:38:15;;;;;;;25.77;11.43;;;-0.40;67.90;;;;;;5075184;28;20070;-74
2021/04/27 00:40:41;;;;;;;21.05;9.60;;;-0.50;67.70;;;;;;5075051;28;20095;-76
2021/04/27 00:43:06;;;;;;;28.27;12.18;;;-0.50;67.40;;;;;;5075153;28;20111;-74
2021/04/27 00:45:32;;;;;;;15.07;9.25;;;-0.50;67.30;;;;;;5075176;28;20009;-75
2021/04/27 00:47:58;;;;;;;18.48;9.77;;;-0.60;68.00;;;;;;5073395;28;20021;-74
2021/04/27 00:50:28;;;;;;;16.63;9.65;;;-0.50;68.30;;;;;;5075012;28;20016;-75
2021/04/27 00:52:54;;;;;;;21.98;10.20;;;-0.50;68.20;;;;;;5074906;28;20024;-75
2021/04/27 00:55:21;;;;;;;23.67;11.25;;;-0.50;68.80;;;;;;5073589;28;20033;-75
2021/04/27 00:57:46;;;;;;;23.77;12.23;;;-0.50;69.10;;;;;;5073502;28;20102;-74
2021/04/27 01:00:16;;;;;;;28.95;12.88;;;-0.60;69.40;;;;;;5074812;28;20020;-74
2021/04/27 01:02:41;;;;;;;19.67;11.43;;;-0.60;70.40;;;;;;5074629;28;20016;-74
2021/04/27 01:05:19;;;;;;;22.90;11.23;;;-0.60;70.80;;;;;;5074670;28;20028;-75
2021/04/27 01:08:02;;;;;;;18.42;8.75;;;-0.70;70.50;;;;;;5074631;28;20039;-74
2021/04/27 01:10:46;;;;;;;15.15;7.15;;;-0.70;71.00;;;;;;5074772;28;20024;-74
2021/04/27 01:13:31;;;;;;;12.35;7.57;;;-0.70;71.20;;;;;;5074654;28;20016;-74
2021/04/27 01:15:58;;;;;;;16.27;6.95;;;-0.70;71.00;;;;;;5074440;28;20056;-74
2021/04/27 01:18:26;;;;;;;10.98;7.10;;;-0.80;71.70;;;;;;5074222;28;20044;-74
2021/04/27 01:20:53;;;;;;;13.35;7.40;;;-0.70;72.00;;;;;;5074425;28;20467;-74
2021/04/27 01:23:22;;;;;;;12.10;6.53;;;-0.70;71.80;;;;;;5072939;28;20028;-74
2021/04/27 01:26:08;;;;;;;9.98;6.65;;;-0.60;71.80;;;;;;5074221;28;20036;-74
2021/04/27 01:28:34;;;;;;;12.20;6.85;;;-0.60;71.70;;;;;;5072818;28;20025;-75
2021/04/27 01:31:02;;;;;;;11.90;6.30;;;-0.60;71.30;;;;;;5074123;28;20035;-75
2021/04/27 01:33:30;;;;;;;14.45;7.30;;;-0.40;71.80;;;;;;5072536;28;20470;-74
2021/04/27 01:35:59;;;;;;;15.35;8.30;;;-0.40;71.50;;;;;;5073915;28;20127;-74
2021/04/27 01:38:26;;;;;;;16.88;7.85;;;-0.30;71.40;;;;;;5073766;28;20037;-74
2021/04/27 01:40:52;;;;;;;15.43;7.05;;;-0.30;71.30;;;;;;5074221;28;20040;-75
2021/04/27 01:43:19;;;;;;;16.15;7.47;;;-0.20;70.90;;;;;;5072473;28;20025;-74
2021/04/27 01:45:47;;;;;;;14.65;7.10;;;-0.10;70.60;;;;;;5073075;28;20012;-74
2021/04/27 01:48:13;;;;;;;11.00;6.43;;;0.00;70.40;;;;;;5052435;28;20033;-75
2021/04/27 01:50:43;;;;;;;10.90;6.53;;;0.00;70.30;;;;;;5052519;28;20020;-75
2021/04/27 01:53:12;;;;;;;11.73;6.10;;;0.00;70.20;;;;;;5052543;28;20043;-74
2021/04/27 01:55:38;;;;;;;13.10;6.65;;;0.10;70.30;;;;;;5052377;28;20083;-75
2021/04/27 01:58:03;;;;;;;10.75;5.78;;;0.10;70.20;;;;;;5052178;28;20037;-74
2021/04/27 02:00:29;;;;;;;10.95;6.25;;;0.20;70.10;;;;;;5053586;28;20017;-75
2021/04/27 02:02:55;;;;;;;14.20;8.18;;;0.10;70.90;;;;;;5052131;28;20533;-75
2021/04/27 02:05:22;;;;;;;10.07;7.13;;;0.20;69.90;;;;;;5053533;28;20052;-75
2021/04/27 02:07:48;;;;;;;11.27;6.50;;;0.20;69.70;;;;;;5052141;28;20105;-74
2021/04/27 02:10:15;;;;;;;14.68;6.72;;;0.20;69.70;;;;;;5053389;28;20104;-74
2021/04/27 02:12:47;;;;;;;14.02;7.90;;;0.20;69.60;;;;;;5053361;28;20044;-74
2021/04/27 02:15:18;;;;;;;16.10;8.07;;;0.20;69.50;;;;;;5052168;28;20467;-74
2021/04/27 02:17:52;;;;;;;19.77;8.35;;;0.10;68.80;;;;;;5052037;28;20056;-74
2021/04/27 02:20:23;;;;;;;21.20;10.02;;;0.10;69.30;;;;;;5053322;28;20021;-74
2021/04/27 02:22:49;;;;;;;35.50;13.75;;;0.00;68.90;;;;;;5051919;28;20017;-74
2021/04/27 02:25:16;;;;;;;35.85;14.15;;;-0.10;68.60;;;;;;5053245;28;20029;-74
2021/04/27 02:27:43;;;;;;;19.02;8.77;;;-0.20;69.50;;;;;;5053230;28;20040;-74
2021/04/27 02:30:12;;;;;;;47.92;15.32;;;-0.30;70.20;;;;;;5051785;28;20025;-74
2021/04/27 02:32:39;;;;;;;29.83;10.27;;;-0.50;70.80;;;;;;5052933;28;20104;-74
2021/04/27 02:35:08;;;;;;;16.80;9.77;;;-0.60;71.10;;;;;;5051684;28;20043;-74
2021/04/27 02:37:34;;;;;;;22.40;9.63;;;-0.70;72.40;;;;;;5051498;28;20033;-75
2021/04/27 02:40:00;;;;;;;19.85;10.02;;;-0.70;72.90;;;;;;5051648;28;20025;-75
2021/04/27 02:42:26;;;;;;;22.25;8.20;;;-0.80;73.60;;;;;;5052758;28;20029;-74
2021/04/27 02:44:52;;;;;;;17.73;7.35;;;-0.90;73.90;;;;;;5052837;28;20021;-76
2021/04/27 02:47:18;;;;;;;15.80;7.43;;;-0.90;73.70;;;;;;5051573;28;20155;-74
2021/04/27 02:49:44;;;;;;;15.98;7.63;;;-1.00;73.40;;;;;;5051645;28;20036;-74
2021/04/27 02:52:10;;;;;;;18.73;7.63;;;-1.00;72.70;;;;;;5052500;28;20022;-74
2021/04/27 02:54:35;;;;;;;13.10;8.32;;;-1.00;73.20;;;;;;5051570;28;20116;-75
2021/04/27 02:57:01;;;;;;;16.20;8.10;;;-1.00;73.60;;;;;;5050918;28;20037;-74
2021/04/27 02:59:27;;;;;;;12.18;7.85;;;-1.10;73.50;;;;;;5052536;28;20513;-75
2021/04/27 03:01:52;;;;;;;20.50;9.45;;;-1.10;75.00;;;;;;5052593;28;20029;-74
2021/04/27 03:04:18;;;;;;;16.25;8.68;;;-1.10;76.00;;;;;;5052438;28;20617;-75
2021/04/27 03:06:44;;;;;;;27.42;11.38;;;-1.10;76.30;;;;;;5051293;28;20064;-74
2021/04/27 03:09:09;;;;;;;18.50;8.63;;;-1.20;77.20;;;;;;5052700;28;20078;-74
2021/04/27 03:11:35;;;;;;;25.23;11.30;;;-1.20;77.30;;;;;;5051188;28;20029;-74
2021/04/27 03:14:01;;;;;;;24.33;9.48;;;-1.30;78.30;;;;;;5051207;28;20048;-75
2021/04/27 03:16:26;;;;;;;23.73;10.35;;;-1.30;78.20;;;;;;5052464;28;20021;-74
2021/04/27 03:18:52;;;;;;;20.40;8.90;;;-1.30;78.60;;;;;;5052212;28;20033;-74
2021/04/27 03:21:18;;;;;;;17.15;9.23;;;-1.30;78.60;;;;;;5064812;28;20028;-74
2021/04/27 03:23:44;;;;;;;24.95;8.73;;;-1.30;78.50;;;;;;5071254;28;20473;-74
2021/04/27 03:26:09;;;;;;;14.70;8.57;;;-1.30;79.20;;;;;;5072419;28;20028;-74
2021/04/27 03:28:35;;;;;;;17.17;7.82;;;-1.30;79.00;;;;;;5071015;28;20393;-74
2021/04/27 03:31:02;;;;;;;20.00;8.57;;;-1.30;78.50;;;;;;5072381;28;20032;-75
2021/04/27 03:33:27;;;;;;;16.50;7.95;;;-1.30;78.70;;;;;;5071136;28;20022;-74
2021/04/27 03:35:53;;;;;;;14.95;8.25;;;-1.30;78.80;;;;;;5071267;28;20027;-74
2021/04/27 03:38:19;;;;;;;15.43;8.00;;;-1.30;77.40;;;;;;5070785;28;20040;-74
2021/04/27 03:40:45;;;;;;;15.52;8.18;;;-1.40;76.70;;;;;;5071012;28;20021;-75
2021/04/27 03:43:10;;;;;;;16.40;9.02;;;-1.30;77.20;;;;;;5072123;28;20027;-74
2021/04/27 03:45:36;;;;;;;18.08;9.00;;;-1.30;76.40;;;;;;5071138;28;20107;-75
2021/04/27 03:48:22;;;;;;;16.80;8.13;;;-1.30;76.50;;;;;;5060833;28;20107;-74
2021/04/27 03:50:49;;;;;;;14.25;7.47;;;-1.30;77.20;;;;;;5050573;28;20048;-74
2021/04/27 03:53:15;;;;;;;13.73;8.95;;;-1.30;78.40;;;;;;5052038;28;20116;-75
2021/04/27 03:55:41;;;;;;;16.63;8.85;;;-1.30;78.30;;;;;;5052294;28;20531;-75
2021/04/27 03:58:07;;;;;;;16.00;8.85;;;-1.30;78.90;;;;;;5052099;28;20045;-74
2021/04/27 04:00:34;;;;;;;18.92;8.63;;;-1.20;80.50;;;;;;5050723;28;20112;-74
2021/04/27 04:03:00;;;;;;;17.02;9.13;;;-1.00;80.40;;;;;;5052118;28;20025;-74
2021/04/27 04:05:26;;;;;;;13.38;9.13;;;-0.80;81.00;;;;;;5052255;28;20095;-75
2021/04/27 04:07:52;;;;;;;17.17;9.30;;;-0.70;80.80;;;;;;5050761;28;20064;-74
2021/04/27 04:10:18;;;;;;;17.13;8.98;;;-0.50;79.70;;;;;;5052832;28;20017;-74
2021/04/27 04:12:44;;;;;;;18.45;7.80;;;-0.30;78.30;;;;;;5054353;28;20090;-74
2021/04/27 04:15:14;;;;;;;14.93;8.48;;;-0.20;77.80;;;;;;5054399;28;20044;-74
2021/04/27 04:17:40;;;;;;;19.63;9.05;;;0.00;76.80;;;;;;5054149;28;20029;-74
2021/04/27 04:20:15;;;;;;;23.35;10.88;;;0.20;75.90;;;;;;5064006;28;20024;-74
2021/04/27 04:22:41;;;;;;;32.00;13.38;;;0.20;74.60;;;;;;5075509;28;20016;-74
2021/04/27 04:25:09;;;;;;;34.30;14.30;;;0.30;74.30;;;;;;5074090;28;20494;-75
2021/04/27 04:27:35;;;;;;;32.72;13.07;;;0.30;73.10;;;;;;5075380;28;20032;-74
2021/04/27 04:30:09;;;;;;;26.63;13.07;;;0.40;72.50;;;;;;5075196;28;20025;-75
2021/04/27 04:32:34;;;;;;;26.42;12.93;;;0.50;72.50;;;;;;5075270;28;20032;-74
2021/04/27 04:35:00;;;;;;;50.63;15.00;;;0.50;71.80;;;;;;5073916;28;20025;-74
2021/04/27 04:37:26;;;;;;;33.80;12.90;;;0.50;72.90;;;;;;5075050;28;20060;-72
2021/04/27 04:39:52;;;;;;;24.90;11.50;;;0.60;72.40;;;;;;5075103;28;20025;-73
2021/04/27 04:42:18;;;;;;;17.42;8.90;;;0.80;71.80;;;;;;5075058;28;20032;-72
2021/04/27 04:44:43;;;;;;;19.63;8.30;;;0.80;71.40;;;;;;5069470;28;20025;-73
2021/04/27 04:47:09;;;;;;;17.25;8.50;;;0.90;70.70;;;;;;5060615;28;20445;-72
2021/04/27 04:49:35;;;;;;;11.93;7.50;;;1.00;70.10;;;;;;5053111;28;20033;-73
2021/04/27 04:52:01;;;;;;;11.80;6.75;;;1.10;69.70;;;;;;5056676;28;20047;-73
2021/04/27 04:54:26;;;;;;;15.45;8.65;;;1.10;69.20;;;;;;5053640;28;20447;-73
2021/04/27 04:56:52;;;;;;;13.32;8.52;;;1.20;69.20;;;;;;5056040;28;20375;-72
2021/04/27 04:59:18;;;;;;;14.52;8.73;;;1.20;69.40;;;;;;5072147;28;20044;-72
2021/04/27 05:01:43;;;;;;;14.63;9.10;;;1.20;69.00;;;;;;5074369;28;20024;-73
2021/04/27 05:04:09;;;;;;;20.52;9.27;;;1.10;69.70;;;;;;5072328;28;20036;-71
2021/04/27 05:06:38;;;;;;;17.98;8.70;;;1.00;69.90;;;;;;5073709;28;20031;-73
2021/04/27 05:09:05;;;;;;;15.25;9.80;;;1.10;70.40;;;;;;5069973;28;20017;-73
2021/04/27 05:11:31;;;;;;;16.40;9.38;;;1.20;70.30;;;;;;5070609;28;20028;-73
2021/04/27 05:13:58;;;;;;;14.00;7.82;;;1.30;69.80;;;;;;5072456;28;20036;-75
2021/04/27 05:16:24;;;;;;;12.48;7.95;;;1.30;69.20;;;;;;5074247;28;20035;-73
2021/04/27 05:18:51;;;;;;;14.13;7.50;;;1.40;68.90;;;;;;5072777;28;20124;-73
2021/04/27 05:21:17;;;;;;;11.48;6.75;;;1.50;68.60;;;;;;5073821;28;20087;-73
2021/04/27 05:23:43;;;;;;;24.55;9.10;;;1.50;67.90;;;;;;5074167;28;20562;-73
2021/04/27 05:26:09;;;;;;;15.45;7.03;;;1.70;68.40;;;;;;5074083;28;20024;-73
2021/04/27 05:28:35;;;;;;;13.80;8.57;;;1.70;68.40;;;;;;5072408;28;20430;-74
2021/04/27 05:31:01;;;;;;;15.20;9.10;;;1.90;67.60;;;;;;5072933;28;20119;-74
2021/04/27 05:33:26;;;;;;;11.98;5.85;;;2.00;67.40;;;;;;5074065;28;20512;-73
2021/04/27 05:35:52;;;;;;;13.60;6.25;;;2.10;66.60;;;;;;5065499;28;20027;-73
2021/04/27 05:38:18;;;;;;;14.13;6.65;;;2.30;66.10;;;;;;5058390;28;20064;-73
2021/04/27 05:40:44;;;;;;;9.05;6.07;;;2.20;65.50;;;;;;5053624;28;20021;-74
2021/04/27 05:43:10;;;;;;;8.80;6.03;;;2.30;65.40;;;;;;5053748;28;20021;-73
2021/04/27 05:45:35;;;;;;;12.95;7.85;;;2.40;64.70;;;;;;5065310;28;20104;-74
2021/04/27 05:48:01;;;;;;;9.60;6.63;;;2.40;64.30;;;;;;5072958;28;20044;-73
2021/04/27 05:50:27;;;;;;;17.27;8.88;;;2.40;64.80;;;;;;5063792;28;20037;-73
2021/04/27 05:52:53;;;;;;;16.02;7.00;;;2.50;64.20;;;;;;5051524;28;20108;-75
2021/04/27 05:55:19;;;;;;;12.07;7.38;;;2.80;64.20;;;;;;5052474;28;20107;-74
2021/04/27 05:57:44;;;;;;;13.73;7.60;;;2.90;63.00;;;;;;5058034;28;20051;-73
2021/04/27 06:00:11;;;;;;;11.85;6.60;;;3.10;62.20;;;;;;5058808;28;20016;-73
2021/04/27 06:02:36;;;;;;;13.90;6.80;;;3.20;61.10;;;;;;5051149;28;20510;-73
2021/04/27 06:05:03;;;;;;;15.48;6.85;;;3.20;60.50;;;;;;5061072;28;20114;-74
2021/04/27 06:07:28;;;;;;;14.23;6.30;;;3.30;59.90;;;;;;5071045;28;20024;-73
2021/04/27 06:09:54;;;;;;;21.02;10.55;;;3.30;59.40;;;;;;5072518;28;20020;-75
2021/04/27 06:12:19;;;;;;;11.52;6.75;;;3.40;59.10;;;;;;5071347;28;20474;-73
2021/04/27 06:14:45;;;;;;;8.27;5.70;;;3.60;59.00;;;;;;5072078;28;20570;-74
2021/04/27 06:17:11;;;;;;;11.15;6.00;;;3.70;58.90;;;;;;5071876;28;20386;-73
2021/04/27 06:19:36;;;;;;;9.52;6.38;;;3.90;58.20;;;;;;5071796;28;20119;-74
2021/04/27 06:22:02;;;;;;;12.18;6.20;;;4.10;58.00;;;;;;5073104;28;20443;-74
2021/04/27 06:24:28;;;;;;;18.75;7.00;;;4.30;57.40;;;;;;5073237;28;20028;-74
2021/04/27 06:26:54;;;;;;;13.60;5.80;;;4.40;56.90;;;;;;5072881;28;20024;-73
2021/04/27 06:29:19;;;;;;;8.30;5.07;;;4.60;56.10;;;;;;5072933;28;20060;-74
2021/04/27 06:31:45;;;;;;;11.48;5.75;;;4.80;55.80;;;;;;5071162;28;20111;-73
2021/04/27 06:34:11;;;;;;;8.68;5.03;;;4.90;55.50;;;;;;5072552;28;20024;-74
2021/04/27 06:36:36;;;;;;;7.47;4.72;;;4.90;54.50;;;;;;5071360;28;20047;-73
2021/04/27 06:39:04;;;;;;;7.80;4.15;;;5.00;54.20;;;;;;5072472;28;20483;-74
2021/04/27 06:41:32;;;;;;;8.27;4.90;;;5.00;53.30;;;;;;5071584;28;20020;-74
2021/04/27 06:44:02;;;;;;;8.90;4.15;;;5.10;52.70;;;;;;5072486;28;20024;-73
2021/04/27 06:46:28;;;;;;;7.82;4.35;;;5.30;52.90;;;;;;5069074;28;20470;-73
2021/04/27 06:48:54;;;;;;;7.80;4.40;;;5.40;52.10;;;;;;5060687;28;20083;-74
2021/04/27 06:51:20;;;;;;;7.70;4.10;;;5.40;52.10;;;;;;5051159;28;20425;-74
2021/04/27 06:53:47;;;;;;;5.15;3.97;;;5.50;51.40;;;;;;5051532;28;20017;-73
2021/04/27 06:56:13;;;;;;;9.30;3.90;;;5.40;50.60;;;;;;5051339;28;20025;-74
2021/04/27 06:58:39;;;;;;;3.85;3.42;;;5.60;51.10;;;;;;5052751;28;20124;-73
2021/04/27 07:01:05;;;;;;;5.18;3.80;;;5.40;49.90;;;;;;5051351;28;20096;-75
2021/04/27 07:03:33;;;;;;;5.88;3.90;;;5.50;49.10;;;;;;5052766;28;20016;-74
2021/04/27 07:05:59;;;;;;;4.63;3.97;;;5.50;48.60;;;;;;5052611;28;20550;-73
2021/04/27 07:08:24;;;;;;;6.00;4.20;;;5.60;49.10;;;;;;5051201;28;20032;-73
2021/04/27 07:10:53;;;;;;;4.85;3.33;;;5.70;49.00;;;;;;5052346;28;20017;-76
2021/04/27 07:13:19;;;;;;;5.22;3.47;;;5.60;47.80;;;;;;5051131;28;20020;-75
2021/04/27 07:15:45;;;;;;;5.00;3.35;;;5.60;46.30;;;;;;5051202;28;20074;-76
2021/04/27 07:18:11;;;;;;;7.65;3.97;;;5.70;46.70;;;;;;5052302;28;20112;-75
2021/04/27 07:20:37;;;;;;;7.57;4.60;;;5.90;46.80;;;;;;5051393;28;20021;-74
2021/04/27 07:23:03;;;;;;;6.45;3.30;;;6.00;47.50;;;;;;5052370;28;20019;-75
2021/04/27 07:25:28;;;;;;;4.90;3.40;;;6.20;47.80;;;;;;5052404;28;20029;-74
2021/04/27 07:27:54;;;;;;;7.55;3.58;;;6.30;46.60;;;;;;5052451;28;20032;-74
2021/04/27 07:30:21;;;;;;;7.90;3.67;;;6.30;45.60;;;;;;5052372;28;20086;-76
2021/04/27 07:32:47;;;;;;;5.20;3.75;;;6.40;46.20;;;;;;5052300;28;20399;-74
2021/04/27 07:35:13;;;;;;;6.30;4.25;;;6.50;46.40;;;;;;5051626;28;20025;-75
2021/04/27 07:37:39;;;;;;;5.88;4.30;;;6.50;46.00;;;;;;5050868;28;20573;-75
2021/04/27 07:40:06;;;;;;;5.68;4.07;;;6.50;46.10;;;;;;5051938;28;20025;-75
2021/04/27 07:42:32;;;;;;;7.00;3.85;;;6.20;47.00;;;;;;5050854;28;20025;-74
2021/04/27 07:44:58;;;;;;;6.18;4.53;;;6.20;47.10;;;;;;5055297;28;20139;-74
2021/04/27 07:47:24;;;;;;;6.22;4.07;;;6.40;47.00;;;;;;5056116;28;20025;-74
2021/04/27 07:49:49;;;;;;;6.85;4.22;;;6.50;47.30;;;;;;5055921;28;20496;-75
2021/04/27 07:52:15;;;;;;;4.38;3.17;;;6.50;45.90;;;;;;5055662;28;20021;-75
2021/04/27 07:54:41;;;;;;;3.72;3.42;;;6.50;44.70;;;;;;5055930;28;20017;-75
2021/04/27 07:57:07;;;;;;;5.45;3.50;;;6.80;44.10;;;;;;5054662;28;20029;-74
2021/04/27 07:59:33;;;;;;;4.78;3.42;;;7.00;43.60;;;;;;5054875;28;20489;-74
2021/04/27 08:01:58;;;;;;;4.07;2.80;;;7.10;43.40;;;;;;5055940;28;20021;-74
2021/04/27 08:04:24;;;;;;;3.50;2.50;;;7.30;43.00;;;;;;5054388;28;20107;-74
2021/04/27 08:06:50;;;;;;;4.95;3.25;;;7.50;41.90;;;;;;5053570;28;20111;-74
2021/04/27 08:09:16;;;;;;;6.05;3.63;;;7.50;41.10;;;;;;5054471;28;20056;-75
2021/04/27 08:11:41;;;;;;;5.00;3.40;;;7.60;41.90;;;;;;5054482;28;20032;-74
2021/04/27 08:14:09;;;;;;;4.72;3.63;;;7.50;41.60;;;;;;5055423;28;20025;-74
2021/04/27 08:16:34;;;;;;;3.20;2.85;;;7.40;41.60;;;;;;5055694;28;20020;-74
2021/04/27 08:19:01;;;;;;;6.45;3.33;;;7.70;41.70;;;;;;5055542;28;20167;-74
2021/04/27 08:21:27;;;;;;;5.10;3.70;;;7.80;41.50;;;;;;5055588;28;20505;-74
2021/04/27 08:23:53;;;;;;;4.10;3.55;;;7.80;41.10;;;;;;5055271;28;20025;-74
2021/04/27 08:26:19;;;;;;;6.88;3.58;;;7.80;41.10;;;;;;5055375;28;20025;-74
2021/04/27 08:28:45;;;;;;;6.43;2.63;;;7.90;40.30;;;;;;5053914;28;20024;-74
2021/04/27 08:31:11;;;;;;;5.35;3.20;;;8.20;39.50;;;;;;5054188;28;20024;-75
2021/04/27 08:33:37;;;;;;;6.72;3.45;;;8.50;39.00;;;;;;5055330;28;20075;-74
2021/04/27 08:36:04;;;;;;;6.03;3.25;;;8.70;38.20;;;;;;5053953;28;20067;-75
2021/04/27 08:38:31;;;;;;;4.60;2.60;;;8.80;38.40;;;;;;5053689;28;20045;-74
2021/04/27 08:40:58;;;;;;;3.42;2.17;;;8.60;38.20;;;;;;5053720;28;20029;-74
2021/04/27 08:43:23;;;;;;;3.67;2.67;;;8.70;37.70;;;;;;5053928;28;20412;-74
2021/04/27 08:45:49;;;;;;;3.08;2.25;;;8.80;36.60;;;;;;5054985;28;20108;-74
2021/04/27 08:48:16;;;;;;;4.90;2.45;;;8.70;35.60;;;;;;5053631;28;20021;-75
2021/04/27 08:50:44;;;;;;;3.50;2.38;;;8.60;35.20;;;;;;5067864;28;20035;-74
2021/04/27 08:53:11;;;;;;;5.13;3.00;;;8.90;35.30;;;;;;5073472;28;20021;-74
2021/04/27 08:55:37;;;;;;;3.35;3.05;;;9.20;35.80;;;;;;5071361;28;20111;-74
2021/04/27 08:58:07;;;;;;;3.55;2.63;;;9.30;36.30;;;;;;5073182;28;20423;-74
2021/04/27 09:00:34;;;;;;;4.95;2.83;;;9.20;35.80;;;;;;5074683;28;20494;-75
2021/04/27 09:03:03;;;;;;;3.95;3.28;;;9.30;35.40;;;;;;5061222;28;20376;-74
2021/04/27 09:05:31;;;;;;;3.50;2.72;;;9.40;34.70;;;;;;5054567;28;20021;-74
2021/04/27 09:07:58;;;;;;;3.83;3.13;;;9.50;35.40;;;;;;5053049;28;20021;-74
2021/04/27 09:10:43;;;;;;;3.33;2.50;;;9.70;34.90;;;;;;5054799;28;20040;-74
2021/04/27 09:13:15;;;;;;;5.43;3.00;;;9.70;35.20;;;;;;5054481;28;20017;-74
2021/04/27 09:15:45;;;;;;;4.95;3.90;;;9.90;36.10;;;;;;5052904;28;20021;-74
2021/04/27 09:18:31;;;;;;;3.13;2.20;;;10.00;35.90;;;;;;5053170;28;20123;-74
2021/04/27 09:21:05;;;;;;;3.05;2.78;;;10.00;34.80;;;;;;5052594;28;20180;-74
2021/04/27 09:23:33;;;;;;;3.78;2.72;;;9.50;34.50;;;;;;5053861;28;20066;-74
2021/04/27 09:26:05;;;;;;;4.57;3.03;;;9.40;33.90;;;;;;5052537;28;20017;-74
2021/04/27 09:28:42;;;;;;;6.80;3.33;;;9.40;34.00;;;;;;5054064;28;20468;-75
2021/04/27 09:31:36;;;;;;;3.95;2.50;;;9.50;34.30;;;;;;5054045;28;20029;-75
2021/04/27 09:34:29;;;;;;;2.78;2.40;;;9.20;33.30;;;;;;5052701;28;20025;-75
2021/04/27 09:37:17;;;;;;;4.50;2.80;;;9.10;34.20;;;;;;5053992;28;20021;-75
2021/04/27 09:39:50;;;;;;;4.35;3.25;;;9.10;34.10;;;;;;5053411;28;20056;-75
2021/04/27 09:42:21;;;;;;;5.78;2.40;;;9.00;33.30;;;;;;5052786;28;20040;-74
2021/04/27 09:44:50;;;;;;;3.22;2.92;;;9.30;32.80;;;;;;5052638;28;20032;-75
2021/04/27 09:47:26;;;;;;;6.25;3.40;;;9.10;33.70;;;;;;5052768;28;20029;-75
2021/04/27 09:50:07;;;;;;;6.28;3.45;;;8.40;33.80;;;;;;5053798;28;20505;-75
2021/04/27 09:52:41;;;;;;;4.63;2.80;;;8.30;34.40;;;;;;5052350;28;20024;-75
2021/04/27 09:55:13;;;;;;;4.28;2.70;;;8.50;34.80;;;;;;5052378;28;20021;-75
2021/04/27 09:57:46;;;;;;;2.95;2.65;;;8.70;35.00;;;;;;5051993;28;20103;-73
2021/04/27 10:00:39;;;;;;;3.47;2.97;;;8.80;34.80;;;;;;5051791;28;20017;-75
2021/04/27 10:03:08;;;;;;;4.93;2.83;;;8.60;34.70;;;;;;5049612;28;20124;-74
2021/04/27 10:05:35;;;;;;;3.55;2.90;;;8.70;34.80;;;;;;5052089;28;20071;-74
2021/04/27 10:08:01;;;;;;;6.25;3.35;;;9.00;34.80;;;;;;5051041;28;20021;-74
2021/04/27 10:10:30;;;;;;;6.10;3.53;;;9.00;35.20;;;;;;5053482;28;20056;-76
2021/04/27 10:13:01;;;;;;;4.20;2.53;;;8.50;34.90;;;;;;5052865;28;20079;-75
2021/04/27 10:15:28;;;;;;;4.25;2.90;;;8.90;35.10;;;;;;5053442;28;20028;-75
2021/04/27 10:17:55;;;;;;;3.30;2.60;;;9.30;35.10;;;;;;5053060;28;20025;-75
2021/04/27 10:20:21;;;;;;;4.43;3.63;;;9.60;34.20;;;;;;5053331;28;20026;-74
2021/04/27 10:22:48;;;;;;;3.60;3.00;;;10.00;34.60;;;;;;5051901;28;20029;-75
2021/04/27 10:25:18;;;;;;;5.72;3.10;;;10.10;34.10;;;;;;5053287;28;20045;-75
2021/04/27 10:27:44;;;;;;;3.30;2.72;;;9.90;34.10;;;;;;5051315;28;20025;-75
2021/04/27 10:30:33;;;;;;;3.47;3.10;;;9.70;33.60;;;;;;5051829;28;20095;-75
2021/04/27 10:33:02;;;;;;;4.22;2.70;;;9.80;32.90;;;;;;5052914;28;20516;-75
2021/04/27 10:35:33;;;;;;;5.95;3.22;;;9.70;34.00;;;;;;5053077;28;20052;-76
2021/04/27 10:38:07;;;;;;;5.20;3.40;;;9.80;34.60;;;;;;5050923;28;20040;-74
2021/04/27 10:40:43;;;;;;;5.22;3.10;;;10.00;36.10;;;;;;5049866;28;20029;-74
2021/04/27 10:43:27;;;;;;;5.32;3.25;;;10.00;35.40;;;;;;5052127;28;20087;-75
2021/04/27 10:45:57;;;;;;;6.22;2.85;;;10.20;35.30;;;;;;5050739;28;20116;-75
2021/04/27 10:48:27;;;;;;;3.72;3.40;;;10.20;34.60;;;;;;5050932;28;20040;-75
2021/04/27 10:50:53;;;;;;;3.15;2.85;;;10.40;35.20;;;;;;5050790;28;20083;-75
2021/04/27 10:54:03;;;;;;;4.97;3.35;;;10.50;34.90;;;;;;5051344;28;20017;-75
2021/04/27 10:56:36;;;;;;;3.60;2.92;;;10.30;34.80;;;;;;5045183;28;20036;-75
2021/04/27 10:59:05;;;;;;;;;;;10.30;34.90;;;;;;5051857;28;20048;-75
2021/04/27 11:01:31;;;;;;;4.00;2.70;;;10.30;35.20;;;;;;5052638;28;19919;-76
2021/04/27 11:03:57;;;;;;;7.10;3.20;;;10.20;34.80;;;;;;5051170;28;20108;-76
2021/04/27 11:06:24;;;;;;;4.07;3.20;;;10.00;33.30;;;;;;5052352;28;20032;-76
2021/04/27 11:08:51;;;;;;;3.05;2.55;;;10.00;32.90;;;;;;5051067;28;20021;-75
2021/04/27 11:11:29;;;;;;;3.28;2.97;;;9.90;32.70;;;;;;5051206;28;20086;-75
2021/04/27 11:14:19;;;;;;;3.38;3.03;;;10.10;32.30;;;;;;5050890;28;20036;-76
2021/04/27 11:16:54;;;;;;;4.25;2.88;;;10.30;32.00;;;;;;5051312;28;20058;-75
2021/04/27 11:19:22;;;;;;;2.95;2.65;;;10.20;31.30;;;;;;5053270;28;20403;-76
2021/04/27 11:21:54;;;;;;;4.28;3.00;;;10.10;31.50;;;;;;5055321;28;20554;-76
2021/04/27 11:24:34;;;;;;;4.90;3.10;;;10.20;31.70;;;;;;5056742;28;20063;-76
2021/04/27 11:27:01;;;;;;;2.83;2.63;;;10.00;32.70;;;;;;5054985;28;20024;-75
2021/04/27 11:29:31;;;;;;;8.60;3.53;;;9.80;32.40;;;;;;5056661;28;20017;-75
2021/04/27 11:32:13;;;;;;;4.15;3.42;;;9.90;33.00;;;;;;5056268;28;20028;-75
2021/04/27 11:35:15;;;;;;;6.30;4.33;;;9.80;32.80;;;;;;5055063;28;20440;-75
2021/04/27 11:37:48;;;;;;;4.93;3.58;;;9.70;32.70;;;;;;5054853;28;20025;-76
2021/04/27 11:40:21;;;;;;;4.47;3.30;;;9.60;32.20;;;;;;5054801;28;20021;-75
2021/04/27 11:43:06;;;;;;;5.50;3.65;;;9.80;32.20;;;;;;5056138;28;20029;-75
2021/04/27 11:45:49;;;;;;;8.05;3.95;;;10.10;33.00;;;;;;5056219;28;20391;-75
2021/04/27 11:48:17;;;;;;;4.47;3.63;;;10.10;33.40;;;;;;5056232;28;20467;-76
2021/04/27 11:50:44;;;;;;;4.55;3.55;;;10.00;32.90;;;;;;5056069;28;20025;-75
2021/04/27 11:53:11;;;;;;;3.90;3.13;;;9.70;32.40;;;;;;5056045;28;20029;-75
2021/04/27 11:55:51;;;;;;;3.22;2.92;;;9.80;32.40;;;;;;5054704;28;20035;-75
2021/04/27 11:58:35;;;;;;;5.63;3.10;;;9.80;32.10;;;;;;5054451;28;20040;-75
2021/04/27 12:01:07;;;;;;;3.83;3.10;;;9.80;31.20;;;;;;5054358;28;20028;-75
2021/04/27 12:03:40;;;;;;;3.55;3.10;;;10.00;31.80;;;;;;5055486;28;20036;-75
2021/04/27 12:06:06;;;;;;;6.90;3.30;;;10.10;31.50;;;;;;5055929;28;20025;-75
2021/04/27 12:08:33;;;;;;;4.43;3.75;;;10.20;31.40;;;;;;5054389;28;20090;-76
2021/04/27 12:11:20;;;;;;;3.35;2.92;;;10.40;32.20;;;;;;5054506;28;20025;-75
2021/04/27 12:13:47;;;;;;;5.05;3.80;;;10.20;32.20;;;;;;5054489;28;20021;-75
2021/04/27 12:16:17;;;;;;;4.07;3.67;;;10.30;32.40;;;;;;5054374;28;20086;-75
2021/04/27 12:19:00;;;;;;;4.18;3.78;;;10.30;32.60;;;;;;5054312;28;20037;-75
2021/04/27 12:21:50;;;;;;;4.53;3.85;;;10.00;33.20;;;;;;5055485;28;20063;-75
2021/04/27 12:24:29;;;;;;;8.13;4.63;;;9.90;33.50;;;;;;5054726;28;20017;-76
2021/04/27 12:27:00;;;;;;;5.25;4.32;;;9.90;33.80;;;;;;5054593;28;20013;-76
2021/04/27 12:29:27;;;;;;;5.97;4.38;;;10.10;33.80;;;;;;5053300;28;20044;-75
2021/04/27 12:31:54;;;;;;;5.47;4.00;;;10.10;33.60;;;;;;5052485;28;20094;-75
2021/04/27 12:34:20;;;;;;;6.43;3.72;;;9.90;33.50;;;;;;5054389;28;20036;-75
2021/04/27 12:36:50;;;;;;;7.03;4.68;;;9.80;33.60;;;;;;5053592;28;20021;-75
2021/04/27 12:39:22;;;;;;;4.80;3.75;;;10.00;33.90;;;;;;5055056;28;20029;-76
2021/04/27 12:41:49;;;;;;;5.78;4.18;;;10.10;34.00;;;;;;5053585;28;20143;-74
2021/04/27 12:44:39;;;;;;;6.03;4.43;;;10.20;33.90;;;;;;5055036;28;20028;-75
2021/04/27 12:47:22;;;;;;;6.25;4.63;;;10.40;33.80;;;;;;5055259;28;20029;-75
2021/04/27 12:50:17;;;;;;;6.40;4.18;;;10.20;32.90;;;;;;5054364;28;20025;-77
2021/04/27 12:52:49;;;;;;;5.38;4.38;;;10.20;32.80;;;;;;5051964;28;20041;-76
2021/04/27 12:55:25;;;;;;;5.20;4.30;;;10.00;32.40;;;;;;5053658;28;20119;-75
2021/04/27 12:57:52;;;;;;;4.93;4.45;;;10.00;32.30;;;;;;5054587;28;20036;-76